• Join FlightAware (Why Join?)
  • Login
  • US Flag 
08:17PM EST


 

Airport Tracker/Info


-or-


 

Live Flight TrackerFlight Track Log ✈ SWA3313 ✈ 03-May-2013 ✈ KMHT - KBWI

Flight Track Log - Related Links

Times and Time Zones

All times are in EDT time to prevent confusion due to time zone crossing. See the SWA3313 flight status page for this flight to view local times or setup timezone preferences in your user account.

Time Position Orientation Groundspeed Altitude Reporting Facility
EDT Latitude Longitude Course Direction KTS MPH feet Rate Location/Type
06:06PM 42.9167 -71.4167 216° Southwest 150 173 1,200  Level KA90
06:06PM 42.9000 -71.4333 216° Southwest 161 185 1,700 2,040 Climbing KA90
06:07PM 42.9000 -71.4833 270° West 233 268 3,900 3,060 Climbing KA90
06:09PM 42.9503 -71.4444 30° Northeast 257 296 8,500 3,480 Climbing Boston Center
06:10PM 42.9831 -71.3558 63° Northeast 251 289 11,500 3,540 Climbing Boston Center
06:11PM 43.0153 -71.2503 67° East 276 318 15,600 3,480 Climbing Boston Center
06:12PM 43.0475 -71.1558 65° Northeast 293 337 18,500 2,280 Climbing Boston Center
06:13PM 43.0817 -71.0386 68° East 314 361 20,200 2,160 Climbing Boston Center
06:14PM 43.0239 -70.9150 123° Southeast 330 380 22,900 2,340 Climbing Boston Center
06:15PM 42.9011 -70.9322 186° South 294 338 24,900 2,040 Climbing Boston Center
06:16PM 42.7767 -70.9919 199° South 370 426 27,000 2,100 Climbing Boston Center
06:17PM 42.6867 -71.1322 229° Southwest 416 479 29,100 1,500 Climbing Boston Center
06:18PM 42.6069 -71.2808 234° Southwest 443 510 30,000 420 Climbing Boston Center
06:19PM 42.5272 -71.4258 233° Southwest 477 549 30,000 900 Level Boston Center
06:20PM 42.4450 -71.5650 231° Southwest 483 556 31,800 960 Climbing Boston Center
06:21PM 42.3625 -71.7094 232° Southwest 489 563 32,000 960 Climbing Boston Center
06:22PM 42.2822 -71.8536 233° Southwest 489 563 33,800 960 Climbing Boston Center
06:23PM 42.2017 -71.9944 232° Southwest 489 563 34,000 60 Climbing Boston Center
06:24PM 42.1228 -72.1350 233° Southwest 489 563 34,000  Level Boston Center
06:25PM 42.0419 -72.2781 233° Southwest 484 557 34,000  Level Boston Center
06:26PM 41.9544 -72.4289 232° Southwest 484 557 34,000  Level Boston Center
06:27PM 41.8731 -72.5711 232° Southwest 484 557 34,000  Level Boston Center
06:28PM 41.7914 -72.7131 232° Southwest 476 548 34,000  Level Boston Center
06:29PM 41.7119 -72.8517 233° Southwest 476 548 34,000  Level Boston Center
06:30PM 41.6281 -72.9928 232° Southwest 486 559 34,000  Level Boston Center
06:31PM 41.5481 -73.1281 232° Southwest 481 554 34,000  Level Boston Center
06:32PM 41.4825 -73.2492 234° Southwest 465 535 34,000 -360 Level Boston Center
06:33PM 41.3517 -73.4686 232° Southwest 465 535 33,200 -660 Descending New York Center
06:34PM 41.2714 -73.6033 232° Southwest 470 541 32,300 -600 Descending New York Center
06:35PM 41.1908 -73.7406 232° Southwest 475 547 32,000 -180 Descending New York Center
06:36PM 41.1083 -73.8775 231° Southwest 480 552 32,000  Level New York Center
06:37PM 41.0275 -74.0139 232° Southwest 480 552 32,000 -360 Level New York Center
06:38PM 40.9467 -74.1500 232° Southwest 475 547 31,300 -2,040 Descending New York Center
06:39PM 40.8528 -74.2964 230° Southwest 475 547 28,000 -2,700 Descending New York Center
06:40PM 40.7758 -74.4267 232° Southwest 480 552 26,000 -1,020 Descending New York Center
06:41PM 40.6967 -74.5564 231° Southwest 474 545 26,000 -60 Level New York Center
06:42PM 40.6317 -74.7033 240° Southwest 469 540 25,900 -1,200 Descending New York Center
06:43PM 40.5642 -74.8469 238° Southwest 469 540 23,600 -1,980 Descending New York Center
06:44PM 40.5028 -74.9881 240° Southwest 458 527 22,000 -1,020 Descending New York Center
06:45PM 40.4417 -75.1289 240° Southwest 448 516 21,700 -1,320 Descending New York Center
06:46PM 40.3819 -75.2694 241° Southwest 448 516 19,400 -1,860 Descending New York Center
06:47PM 40.3128 -75.3928 234° Southwest 443 510 18,000 -720 Descending New York Center
06:48PM 40.2075 -75.4728 210° Southwest 425 489 18,000  Level New York Center
06:49PM 40.1022 -75.5472 208° Southwest 433 498 18,000 -60 Level New York Center
06:50PM 39.9972 -75.6186 208° Southwest 433 498 17,900 -360 Descending New York Center
06:51PM 39.9000 -75.7036 214° Southwest 428 493 17,300 -480 Descending New York Center
06:52PM 39.8364 -75.8264 236° Southwest 415 478 17,000 -1,260 Descending New York Center
06:54PM 39.7597 -75.9543 247° West  Level FlightAware Approximate
06:56PM 39.6333 -76.2167 218° Southwest 324 373 12,000  Level Potomac TRACON
06:57PM 39.6000 -76.3167 247° West 307 353 10,800 -1,440 Descending Potomac TRACON
06:58PM 39.5500 -76.4167 237° Southwest 297 342 9,200 -1,560 Descending Potomac TRACON
07:00PM 39.4833 -76.6000 245° Southwest 291 335 6,200 -1,320 Descending Potomac TRACON
07:01PM 39.2690 -76.5644 218° Southwest  Level FlightAware Approximate
07:02PM 39.4000 -76.7667 237° Southwest 277 319 4,000  Level Potomac TRACON
07:03PM 39.3667 -76.8500 243° Southwest 274 315 3,600 -300 Descending Potomac TRACON
07:05PM 39.2086 -76.6998 144° Southeast  Level Estimated
07:06PM 39.1833 -76.9167 144° Southeast 202 232 3,000  Level Potomac TRACON
07:07PM 39.1833 -76.8500 90° East 188 216 2,500 -720 Descending Potomac TRACON
07:08PM 39.1833 -76.7833 90° East 167 192 1,600 -780 Descending Potomac TRACON
07:09PM 39.1833 -76.7333 90° East 137 158 1,000 180 Descending Potomac TRACON
07:10PM 39.1833 -76.6833 90° East 165 190 2,000 480 Climbing Potomac TRACON
07:11PM 39.1333 -76.6500 153° Southeast 217 250 2,000  Level Potomac TRACON